createdAt,value
2017-10-12T00:02:07.630Z,95920.78
2017-10-12T00:04:37.312Z,95918.21
2017-10-12T00:07:06.386Z,95925.42
2017-10-12T00:09:35.447Z,95920.23
2017-10-12T00:12:04.484Z,95919.86
2017-10-12T00:14:34.454Z,95918.88
2017-10-12T00:17:03.494Z,95922.56
2017-10-12T00:19:32.565Z,95917.84
2017-10-12T00:22:01.594Z,95920.29
2017-10-12T00:24:30.632Z,95920.33
2017-10-12T00:26:59.670Z,95927.08
2017-10-12T00:29:28.723Z,95931.30
2017-10-12T00:31:57.947Z,95931.61
2017-10-12T00:34:27.957Z,95926.62
2017-10-12T00:36:56.982Z,95924.23
2017-10-12T00:39:26.048Z,95926.02
2017-10-12T00:41:55.072Z,95922.61
2017-10-12T00:44:24.130Z,95927.20
2017-10-12T00:46:53.161Z,95934.41
2017-10-12T00:49:22.270Z,95938.37
2017-10-12T00:51:51.294Z,95937.58
2017-10-12T00:54:20.334Z,95938.73
2017-10-12T00:56:49.362Z,95937.41
2017-10-12T00:59:18.391Z,95940.04
2017-10-12T01:01:47.534Z,95936.64
2017-10-12T01:04:16.565Z,95944.28
2017-10-12T01:06:45.596Z,95936.53
2017-10-12T01:09:14.672Z,95937.67
2017-10-12T01:11:43.710Z,95943.23
2017-10-12T01:14:12.754Z,95946.17
2017-10-12T01:16:41.783Z,95936.49
2017-10-12T01:19:10.825Z,95935.20
2017-10-12T01:21:39.863Z,95930.61
2017-10-12T01:24:08.982Z,95927.41
2017-10-12T01:26:39.422Z,95935.41
2017-10-12T01:29:08.451Z,95932.09
2017-10-12T01:31:37.490Z,95927.39
2017-10-12T01:34:06.556Z,95931.80
2017-10-12T01:36:35.593Z,95922.16
2017-10-12T01:39:04.635Z,95924.75
2017-10-12T01:41:33.669Z,95923.98
2017-10-12T01:44:02.760Z,95923.92
2017-10-12T01:46:31.796Z,95929.53
2017-10-12T01:49:00.882Z,95933.92
2017-10-12T01:51:29.910Z,95931.72
2017-10-12T01:53:58.947Z,95933.92
2017-10-12T01:56:28.005Z,95930.36
2017-10-12T01:58:57.027Z,95932.41
2017-10-12T02:01:26.134Z,95929.16
2017-10-12T02:03:55.173Z,95929.98
2017-10-12T02:06:24.210Z,95933.97
2017-10-12T02:08:54.258Z,95931.45
2017-10-12T02:11:24.205Z,95936.61
2017-10-12T02:13:53.226Z,95937.47
2017-10-12T02:16:22.395Z,95943.53
2017-10-12T02:18:51.417Z,95940.08
2017-10-12T02:21:20.449Z,95942.02
2017-10-12T02:23:49.557Z,95946.20
2017-10-12T02:26:18.561Z,95942.30
2017-10-12T02:28:47.618Z,95940.45
2017-10-12T02:31:16.670Z,95938.91
2017-10-12T02:33:45.713Z,95937.77
2017-10-12T02:36:14.740Z,95937.27
2017-10-12T02:38:43.831Z,95941.34
2017-10-12T02:41:12.848Z,95941.72
2017-10-12T02:43:41.942Z,95943.93
2017-10-12T02:46:10.984Z,95940.09
2017-10-12T02:48:40.031Z,95940.63
2017-10-12T02:51:10.074Z,95939.70
2017-10-12T02:53:39.105Z,95938.03
2017-10-12T02:56:08.151Z,95940.91
2017-10-12T02:58:37.193Z,95937.16
2017-10-12T03:01:06.481Z,95940.95
2017-10-12T03:03:35.548Z,95943.45
2017-10-12T03:06:04.578Z,95945.68
2017-10-12T03:08:33.634Z,95945.15
2017-10-12T03:11:02.674Z,95947.97
2017-10-12T03:13:31.723Z,95947.90
2017-10-12T03:16:00.767Z,95948.69
2017-10-12T03:18:30.054Z,95948.79
2017-10-12T03:20:59.123Z,95947.59
2017-10-12T03:23:29.054Z,95951.23
2017-10-12T03:25:58.089Z,95951.36
2017-10-12T03:28:27.133Z,95951.37
2017-10-12T03:30:56.177Z,95950.56
2017-10-12T03:33:25.219Z,95952.95
2017-10-12T03:35:54.291Z,95954.60
2017-10-12T03:38:24.231Z,95957.14
2017-10-12T03:40:53.278Z,95961.09
2017-10-12T03:43:22.314Z,95958.38
2017-10-12T03:45:52.322Z,95953.05
2017-10-12T03:48:21.363Z,95956.05
2017-10-12T03:50:50.411Z,95957.12
2017-10-12T03:53:19.485Z,95957.28
2017-10-12T03:55:48.522Z,95953.88
2017-10-12T03:58:17.574Z,95950.70
2017-10-12T04:00:46.611Z,95942.58
2017-10-12T04:03:15.630Z,95945.44
2017-10-12T04:05:44.666Z,95943.70
2017-10-12T04:08:13.706Z,95947.95
2017-10-12T04:10:42.760Z,95945.78
2017-10-12T04:13:12.721Z,95943.60
2017-10-12T04:15:41.752Z,95942.08
2017-10-12T04:18:10.776Z,95945.16
2017-10-12T04:20:41.083Z,95940.28
2017-10-12T04:23:10.106Z,95936.11
2017-10-12T04:25:39.184Z,95932.61
2017-10-12T04:28:09.516Z,95929.48
2017-10-12T04:30:38.550Z,95933.97
2017-10-12T04:33:07.594Z,95932.03
2017-10-12T04:35:36.710Z,95935.09
2017-10-12T04:38:05.756Z,95938.07
2017-10-12T04:40:34.799Z,95937.44
2017-10-12T04:43:03.952Z,95931.63
2017-10-12T04:45:33.462Z,95933.69
2017-10-12T04:48:02.676Z,95937.87
2017-10-12T04:50:31.686Z,95933.87
2017-10-12T04:53:00.778Z,95938.72
2017-10-12T04:55:29.809Z,95940.61
2017-10-12T04:57:58.864Z,95940.64
2017-10-12T05:00:27.902Z,95939.56
2017-10-12T05:02:57.034Z,95936.98
2017-10-12T05:05:26.042Z,95933.20
2017-10-12T05:07:55.127Z,95928.73
2017-10-12T05:10:24.170Z,95932.55
2017-10-12T05:12:53.447Z,95937.08
2017-10-12T05:15:22.733Z,95938.80
2017-10-12T05:17:51.786Z,95940.18
2017-10-12T05:20:21.248Z,95940.95
2017-10-12T05:22:50.401Z,95942.46
2017-10-12T05:25:19.423Z,95945.33
2017-10-12T05:27:49.034Z,95935.12
2017-10-12T05:30:19.272Z,95945.71
2017-10-12T05:32:49.779Z,95951.17
2017-10-12T05:35:18.875Z,95946.66
2017-10-12T05:37:48.543Z,95947.96
2017-10-12T05:40:18.983Z,95951.10
2017-10-12T05:42:48.026Z,95953.86
2017-10-12T05:45:17.075Z,95958.73
2017-10-12T05:47:46.110Z,95964.50
2017-10-12T05:50:15.165Z,95966.78
2017-10-12T05:52:46.552Z,95965.17
2017-10-12T05:55:16.058Z,95964.04
2017-10-12T05:57:45.139Z,95970.70
2017-10-12T06:00:14.176Z,95976.84
2017-10-12T06:02:43.266Z,95976.20
2017-10-12T06:05:12.329Z,95973.48
2017-10-12T06:07:41.366Z,95974.67
2017-10-12T06:10:10.411Z,95976.36
2017-10-12T06:12:39.454Z,95978.20
2017-10-12T06:15:08.499Z,95983.35
2017-10-12T06:17:38.693Z,95991.31
2017-10-12T06:20:07.788Z,95992.72
2017-10-12T06:22:37.221Z,96004.92
2017-10-12T06:25:07.993Z,96005.86
2017-10-12T06:27:37.027Z,96011.08
2017-10-12T06:30:06.106Z,96010.97
2017-10-12T06:32:35.442Z,96016.02
2017-10-12T06:35:04.486Z,96004.16
2017-10-12T06:37:33.531Z,96013.17
2017-10-12T06:40:02.583Z,96015.53
2017-10-12T06:42:31.645Z,96015.49
2017-10-12T06:45:00.694Z,96018.17
2017-10-12T06:47:30.104Z,96018.67
2017-10-12T06:49:59.143Z,96022.44
2017-10-12T06:52:28.162Z,96032.16
2017-10-12T06:54:57.231Z,96032.12
2017-10-12T06:57:26.330Z,96035.08
2017-10-12T06:59:55.379Z,96037.55
2017-10-12T07:02:24.433Z,96045.28
2017-10-12T07:04:55.417Z,96045.90
2017-10-12T07:07:24.546Z,96045.05
2017-10-12T07:09:53.779Z,96051.19
2017-10-12T07:12:22.845Z,96052.84
2017-10-12T07:14:52.850Z,96073.70
2017-10-12T07:17:21.895Z,96071.48
2017-10-12T07:19:51.275Z,96076.88
2017-10-12T07:22:20.330Z,96076.90
2017-10-12T07:24:49.364Z,96082.05
2017-10-12T07:27:18.422Z,96091.36
2017-10-12T07:29:47.535Z,96086.17
2017-10-12T07:32:16.570Z,96090.53
2017-10-12T07:34:45.659Z,96102.88
2017-10-12T07:37:14.708Z,96123.48
2017-10-12T07:39:43.828Z,96110.29
2017-10-12T07:42:12.893Z,96128.92
2017-10-12T07:44:42.019Z,96115.92
2017-10-12T07:47:11.063Z,96122.84
2017-10-12T07:49:40.108Z,96121.33
2017-10-12T07:52:09.201Z,96119.52
2017-10-12T07:54:38.239Z,96117.64
2017-10-12T07:57:07.314Z,96123.89
2017-10-12T07:59:36.350Z,96125.09
2017-10-12T08:02:05.403Z,96126.09
2017-10-12T08:04:34.454Z,96135.52
2017-10-12T08:07:04.472Z,96145.64
2017-10-12T08:09:33.526Z,96132.28
2017-10-12T08:12:02.622Z,96127.46
2017-10-12T08:14:31.861Z,96131.00
2017-10-12T08:17:00.940Z,96144.93
2017-10-12T08:19:30.014Z,96142.67
2017-10-12T08:21:59.113Z,96142.64
2017-10-12T08:24:28.133Z,96161.63
2017-10-12T08:26:57.221Z,96146.06
2017-10-12T08:29:26.245Z,96164.34
2017-10-12T08:31:55.293Z,96156.33
2017-10-12T08:34:24.344Z,96147.39
2017-10-12T08:36:53.396Z,96152.30
2017-10-12T08:39:22.532Z,96153.52
2017-10-12T08:41:51.606Z,96158.94
2017-10-12T08:44:20.672Z,96156.79
2017-10-12T08:46:49.716Z,96162.86
2017-10-12T08:49:19.163Z,96162.32
2017-10-12T08:51:48.307Z,96158.44
2017-10-12T08:54:17.376Z,96173.78
2017-10-12T08:56:46.448Z,96164.41
2017-10-12T08:59:15.496Z,96164.47
2017-10-12T09:01:44.538Z,96171.53
2017-10-12T09:04:14.591Z,96178.72
2017-10-12T09:06:43.627Z,96172.71
2017-10-12T09:09:12.711Z,96170.80
2017-10-12T09:11:41.835Z,96175.67
2017-10-12T09:14:10.978Z,96174.89
2017-10-12T09:16:40.613Z,96188.88
2017-10-12T09:19:09.670Z,96168.56
2017-10-12T09:21:39.431Z,96168.45
2017-10-12T09:24:08.479Z,96184.68
2017-10-12T09:26:38.504Z,96189.69
2017-10-12T09:29:07.546Z,96181.22
2017-10-12T09:31:36.603Z,96181.52
2017-10-12T09:34:05.683Z,96180.55
2017-10-12T09:36:34.733Z,96181.37
2017-10-12T09:39:03.802Z,96205.67
2017-10-12T09:41:32.838Z,96190.91
2017-10-12T09:44:01.910Z,96201.34
2017-10-12T09:46:30.939Z,96199.22
2017-10-12T09:48:59.966Z,96211.27
2017-10-12T09:51:29.033Z,96228.71
2017-10-12T09:53:58.115Z,96220.09
2017-10-12T09:56:27.166Z,96223.98
2017-10-12T09:58:58.162Z,96237.42
2017-10-12T10:01:27.209Z,96223.42
2017-10-12T10:03:56.257Z,96229.59
2017-10-12T10:06:25.320Z,96248.22
2017-10-12T10:08:54.394Z,96246.48
2017-10-12T10:11:23.459Z,96255.66
2017-10-12T10:13:52.539Z,96251.47
2017-10-12T10:16:21.591Z,96262.99
2017-10-12T10:18:50.643Z,96263.66
2017-10-12T10:21:19.675Z,96262.46
2017-10-12T10:23:48.766Z,96290.17
2017-10-12T10:26:17.893Z,96263.16
2017-10-12T10:28:46.975Z,96266.89
2017-10-12T10:31:16.023Z,96258.52
2017-10-12T10:33:45.148Z,96255.60
2017-10-12T10:36:14.249Z,96268.66
2017-10-12T10:38:43.275Z,96267.80
2017-10-12T10:41:12.323Z,96271.95
2017-10-12T10:43:41.363Z,96278.68
2017-10-12T10:46:10.417Z,96278.08
2017-10-12T10:48:39.457Z,96290.89
2017-10-12T10:51:08.500Z,96291.56
2017-10-12T10:53:37.548Z,96297.80
2017-10-12T10:56:06.623Z,96286.72
2017-10-12T10:58:35.661Z,96293.04
2017-10-12T11:01:04.699Z,96286.69
2017-10-12T11:03:33.800Z,96293.32
2017-10-12T11:06:02.827Z,96299.03
2017-10-12T11:08:31.873Z,96304.98
2017-10-12T11:11:00.935Z,96316.72
2017-10-12T11:13:30.029Z,96306.84
2017-10-12T11:15:59.075Z,96303.91
2017-10-12T11:18:28.132Z,96304.59
2017-10-12T11:20:57.174Z,96303.34
2017-10-12T11:23:26.228Z,96303.56
2017-10-12T11:25:58.265Z,96307.47
2017-10-12T11:28:27.286Z,96308.16
2017-10-12T11:30:56.327Z,96313.08
2017-10-12T11:33:25.407Z,96312.42
2017-10-12T11:35:54.460Z,96312.64
2017-10-12T11:38:23.490Z,96319.28
2017-10-12T11:40:52.574Z,96319.45
2017-10-12T11:43:21.674Z,96319.84
2017-10-12T11:45:50.712Z,96322.28
2017-10-12T11:48:19.779Z,96318.50
2017-10-12T11:50:48.869Z,96323.25
2017-10-12T11:53:17.987Z,96324.23
2017-10-12T11:55:47.040Z,96323.05
2017-10-12T11:58:16.087Z,96328.18
2017-10-12T12:00:45.130Z,96325.25
2017-10-12T12:03:14.179Z,96324.14
2017-10-12T12:05:43.232Z,96329.19
2017-10-12T12:08:12.267Z,96324.63
2017-10-12T12:10:41.318Z,96328.55
2017-10-12T12:13:10.397Z,96330.52
2017-10-12T12:15:39.430Z,96335.69
2017-10-12T12:18:08.481Z,96327.27
2017-10-12T12:20:37.535Z,96325.63
2017-10-12T12:23:06.614Z,96331.33
2017-10-12T12:25:35.671Z,96321.88
2017-10-12T12:28:04.724Z,96320.48
2017-10-12T12:30:33.767Z,96323.02
2017-10-12T12:33:02.823Z,96323.19
2017-10-12T12:35:31.865Z,96328.00
2017-10-12T12:38:00.899Z,96328.44
2017-10-12T12:40:30.010Z,96317.77
2017-10-12T12:42:59.054Z,96321.20
2017-10-12T12:45:28.157Z,96327.45
2017-10-12T12:47:57.182Z,96322.81
2017-10-12T12:50:26.232Z,96323.59
2017-10-12T12:52:55.280Z,96342.22
2017-10-12T12:55:24.342Z,96328.44
2017-10-12T12:57:53.391Z,96331.14
2017-10-12T13:00:22.435Z,96327.64
2017-10-12T13:02:51.479Z,96319.48
2017-10-12T13:05:20.533Z,96322.78
2017-10-12T13:07:49.578Z,96331.75
2017-10-12T13:10:18.635Z,96334.42
2017-10-12T13:12:47.701Z,96329.28
2017-10-12T13:15:16.763Z,96331.75
2017-10-12T13:17:45.806Z,96343.20
2017-10-12T13:20:14.848Z,96333.30
2017-10-12T13:22:43.963Z,96337.16
2017-10-12T13:25:13.034Z,96336.11
2017-10-12T13:27:42.079Z,96329.69
2017-10-12T13:30:11.672Z,96334.54
2017-10-12T13:32:40.715Z,96338.09
2017-10-12T13:35:10.095Z,96340.58
2017-10-12T13:37:39.215Z,96341.95
2017-10-12T13:40:08.277Z,96342.98
2017-10-12T13:42:37.876Z,96339.26
2017-10-12T13:45:10.750Z,96342.55
2017-10-12T13:47:39.791Z,96348.63
2017-10-12T13:50:08.839Z,96345.50
2017-10-12T13:52:38.323Z,96343.31
2017-10-12T13:55:09.627Z,96342.02
2017-10-12T13:57:38.670Z,96335.49
2017-10-12T14:00:07.719Z,96339.41
2017-10-12T14:02:36.822Z,96339.73
2017-10-12T14:05:06.816Z,96340.86
2017-10-12T14:07:35.849Z,96344.52
2017-10-12T14:10:06.516Z,96349.17
2017-10-12T14:12:35.544Z,96354.52
2017-10-12T14:15:04.634Z,96347.77
2017-10-12T14:17:33.687Z,96348.97
2017-10-12T14:20:05.912Z,96351.62
2017-10-12T14:22:34.950Z,96343.34
2017-10-12T14:25:04.008Z,96343.55
2017-10-12T14:27:33.059Z,96337.17
2017-10-12T14:30:02.110Z,96339.61
2017-10-12T14:32:31.168Z,96339.42
2017-10-12T14:35:00.295Z,96343.66
2017-10-12T14:37:29.473Z,96337.39
2017-10-12T14:39:58.527Z,96341.86
2017-10-12T14:42:27.558Z,96345.71
2017-10-12T14:44:56.620Z,96348.35
2017-10-12T14:47:25.664Z,96344.02
2017-10-12T14:49:54.718Z,96342.83
2017-10-12T14:52:23.780Z,96342.99
2017-10-12T14:54:52.817Z,96344.97
2017-10-12T14:57:21.854Z,96339.11
2017-10-12T14:59:50.912Z,96336.81
2017-10-12T15:02:20.014Z,96338.62
2017-10-12T15:04:49.086Z,96341.83
2017-10-12T15:07:18.139Z,96337.59
2017-10-12T15:09:47.201Z,96341.44
2017-10-12T15:12:16.235Z,96351.55
2017-10-12T15:14:45.512Z,96350.27
2017-10-12T15:17:14.554Z,96347.76
2017-10-12T15:19:43.591Z,96349.27
2017-10-12T15:22:12.635Z,96349.36
2017-10-12T15:24:41.671Z,96354.48
2017-10-12T15:27:10.792Z,96357.02
2017-10-12T15:29:39.851Z,96351.86
2017-10-12T15:32:08.882Z,96355.95
2017-10-12T15:34:37.951Z,96355.83
2017-10-12T15:37:06.998Z,96356.36
2017-10-12T15:42:05.109Z,96354.80
2017-10-12T15:44:34.153Z,96357.58
2017-10-12T15:47:03.272Z,96362.14
2017-10-12T15:49:32.304Z,96361.45
2017-10-12T15:52:01.340Z,96365.64
2017-10-12T15:54:30.383Z,96362.36
2017-10-12T15:56:59.447Z,96362.33
2017-10-12T15:59:28.513Z,96361.27
2017-10-12T16:01:57.576Z,96363.03
2017-10-12T16:04:26.846Z,96370.06
2017-10-12T16:06:55.865Z,96368.31
2017-10-12T16:09:24.907Z,96376.16
2017-10-12T16:11:53.976Z,96372.36
2017-10-12T16:14:25.353Z,96375.83
2017-10-12T16:16:54.414Z,96376.24
2017-10-12T16:19:23.602Z,96374.78
2017-10-12T16:21:52.717Z,96369.31
2017-10-12T16:24:21.795Z,96366.83
2017-10-12T16:26:50.847Z,96368.04
2017-10-12T16:29:19.883Z,96365.48
2017-10-12T16:31:48.938Z,96368.53
2017-10-12T16:34:17.999Z,96372.32
2017-10-12T16:36:47.172Z,96374.95
2017-10-12T16:39:16.223Z,96370.73
2017-10-12T16:41:45.404Z,96367.91
2017-10-12T16:44:14.623Z,96372.92
2017-10-12T16:46:43.689Z,96377.36
2017-10-12T16:49:12.714Z,96384.64
2017-10-12T16:51:41.859Z,96388.97
2017-10-12T16:54:10.892Z,96390.05
2017-10-12T16:56:40.237Z,96395.28
2017-10-12T16:59:09.532Z,96398.44
2017-10-12T17:01:38.589Z,96397.05
2017-10-12T17:04:07.725Z,96393.03
2017-10-12T17:06:36.894Z,96395.86
2017-10-12T17:09:05.938Z,96395.11
2017-10-12T17:11:35.015Z,96400.62
2017-10-12T17:14:04.215Z,96401.58
2017-10-12T17:16:34.237Z,96402.63
2017-10-12T17:19:03.362Z,96399.47
2017-10-12T17:21:32.508Z,96396.73
2017-10-12T17:24:01.539Z,96397.93
2017-10-12T17:26:30.607Z,96401.19
2017-10-12T17:28:59.783Z,96402.03
2017-10-12T17:31:28.842Z,96405.41
2017-10-12T17:33:57.970Z,96402.44
2017-10-12T17:36:27.025Z,96405.31
2017-10-12T17:38:56.221Z,96402.20
2017-10-12T17:41:25.263Z,96407.42
2017-10-12T17:43:54.319Z,96410.84
2017-10-12T17:48:53.480Z,96418.91
2017-10-12T17:51:22.566Z,96423.71
2017-10-12T17:53:51.704Z,96419.70
2017-10-12T17:56:20.799Z,96421.03
2017-10-12T17:58:49.853Z,96422.66
2017-10-12T18:01:19.022Z,96424.59
2017-10-12T18:03:48.069Z,96426.33
2017-10-12T18:06:17.513Z,96430.27
2017-10-12T18:08:46.666Z,96432.65
2017-10-12T18:11:15.746Z,96432.39
2017-10-12T18:13:44.803Z,96435.33
2017-10-12T18:16:14.058Z,96436.18
2017-10-12T18:18:44.329Z,96440.94
2017-10-12T18:21:14.078Z,96443.39
2017-10-12T18:23:43.518Z,96442.73
2017-10-12T18:26:12.778Z,96446.79
2017-10-12T18:28:42.632Z,96445.38
2017-10-12T18:31:12.022Z,96449.50
2017-10-12T18:33:41.548Z,96454.76
2017-10-12T18:36:11.067Z,96450.11
2017-10-12T18:38:40.884Z,96454.17
2017-10-12T18:41:10.466Z,96454.21
2017-10-12T18:43:39.523Z,96456.78
2017-10-12T18:46:10.443Z,96459.17
2017-10-12T18:48:40.856Z,96460.41
2017-10-12T18:51:11.904Z,96468.14
2017-10-12T18:53:43.403Z,96469.66
2017-10-12T18:56:12.554Z,96463.44
2017-10-12T18:58:41.573Z,96465.63
2017-10-12T19:01:10.655Z,96473.98
2017-10-12T19:03:39.889Z,96475.03
2017-10-12T19:06:09.041Z,96480.09
2017-10-12T19:08:38.076Z,96486.34
2017-10-12T19:11:07.118Z,96488.89
2017-10-12T19:13:36.440Z,96497.89
2017-10-12T19:16:05.504Z,96492.56
2017-10-12T19:18:34.626Z,96498.36
2017-10-12T19:21:03.676Z,96501.00
2017-10-12T19:23:32.933Z,96503.88
2017-10-12T19:26:02.150Z,96504.75
2017-10-12T19:31:00.413Z,96500.74
2017-10-12T19:33:29.502Z,96503.72
2017-10-12T19:35:58.573Z,96501.98
2017-10-12T19:38:27.731Z,96505.53
2017-10-12T19:43:26.187Z,96504.77
2017-10-12T19:45:55.717Z,96506.33
2017-10-12T19:48:24.870Z,96515.17
2017-10-12T19:53:22.969Z,96507.70
2017-10-12T19:55:52.023Z,96510.34
2017-10-12T19:58:21.076Z,96509.84
2017-10-12T20:00:50.649Z,96510.05
2017-10-12T20:03:19.694Z,96511.35
2017-10-12T20:05:54.841Z,96514.30
2017-10-12T20:08:25.354Z,96514.20
2017-10-12T20:10:54.411Z,96515.61
2017-10-12T20:13:23.450Z,96513.10
2017-10-12T20:15:52.594Z,96514.67
2017-10-12T20:18:21.643Z,96516.23
2017-10-12T20:20:50.692Z,96518.86
2017-10-12T20:23:19.768Z,96517.44
2017-10-12T20:25:48.813Z,96519.58
2017-10-12T20:28:18.008Z,96518.63
2017-10-12T20:30:47.463Z,96518.48
2017-10-12T20:33:16.499Z,96516.44
2017-10-12T20:35:45.556Z,96517.94
2017-10-12T20:38:15.011Z,96517.92
2017-10-12T20:40:44.359Z,96517.83
2017-10-12T20:43:13.521Z,96518.69
2017-10-12T20:45:42.559Z,96526.95
2017-10-12T20:48:11.702Z,96533.16
2017-10-12T20:50:40.771Z,96534.89
2017-10-12T20:53:09.849Z,96533.98
2017-10-12T20:55:38.894Z,96540.13
2017-10-12T20:58:07.930Z,96541.64
2017-10-12T21:00:37.261Z,96542.27
2017-10-12T21:03:06.345Z,96548.69
2017-10-12T21:05:41.724Z,96554.70
2017-10-12T21:08:11.364Z,96554.21
2017-10-12T21:10:40.459Z,96561.39
2017-10-12T21:13:09.520Z,96558.94
2017-10-12T21:15:38.580Z,96559.14
2017-10-12T21:18:07.731Z,96561.17
2017-10-12T21:20:36.783Z,96559.78
2017-10-12T21:23:05.835Z,96566.15
2017-10-12T21:25:34.891Z,96562.37
2017-10-12T21:28:03.940Z,96559.94
2017-10-12T21:30:33.010Z,96563.09
2017-10-12T21:33:02.069Z,96560.42
2017-10-12T21:35:31.106Z,96567.35
2017-10-12T21:38:00.168Z,96568.67
2017-10-12T21:40:29.214Z,96573.01
2017-10-12T21:42:58.282Z,96570.34
2017-10-12T21:45:27.335Z,96569.63
2017-10-12T21:47:56.416Z,96570.52
2017-10-12T21:50:25.580Z,96571.08
2017-10-12T21:52:54.630Z,96574.20
2017-10-12T21:55:23.713Z,96569.03
2017-10-12T21:57:52.761Z,96572.38
2017-10-12T22:00:22.872Z,96566.12
2017-10-12T22:02:51.899Z,96567.09
2017-10-12T22:05:21.055Z,96570.64
2017-10-12T22:07:50.107Z,96576.02
2017-10-12T22:10:19.186Z,96579.28
2017-10-12T22:12:48.238Z,96588.48
2017-10-12T22:15:17.269Z,96580.22
2017-10-12T22:17:46.348Z,96585.47
2017-10-12T22:20:15.399Z,96585.94
2017-10-12T22:22:44.439Z,96589.42
2017-10-12T22:25:13.490Z,96594.43
2017-10-12T22:27:42.542Z,96594.95
2017-10-12T22:30:11.642Z,96595.28
2017-10-12T22:32:40.683Z,96601.34
2017-10-12T22:35:09.734Z,96600.73
2017-10-12T22:37:38.793Z,96601.15
2017-10-12T22:40:07.854Z,96601.67
2017-10-12T22:42:36.910Z,96599.25
2017-10-12T22:45:05.991Z,96598.75
2017-10-12T22:47:35.054Z,96607.84
2017-10-12T22:50:04.111Z,96609.61
2017-10-12T22:52:33.173Z,96607.23
2017-10-12T22:55:02.217Z,96605.89
2017-10-12T22:57:31.303Z,96603.03
2017-10-12T23:00:00.464Z,96600.70
2017-10-12T23:02:29.556Z,96601.57
2017-10-12T23:04:58.600Z,96598.23
2017-10-12T23:07:27.632Z,96596.05
2017-10-12T23:09:56.680Z,96598.25
2017-10-12T23:12:25.728Z,96596.12
2017-10-12T23:14:54.807Z,96589.09
2017-10-12T23:17:23.867Z,96589.61
2017-10-12T23:19:52.895Z,96594.42
2017-10-12T23:22:22.912Z,96590.66
2017-10-12T23:24:51.958Z,96588.87
2017-10-12T23:27:21.012Z,96594.98
2017-10-12T23:29:50.046Z,96594.77
2017-10-12T23:32:19.105Z,96596.01
2017-10-12T23:34:48.140Z,96595.41
2017-10-12T23:37:17.195Z,96600.71
2017-10-12T23:39:46.241Z,96602.33
2017-10-12T23:42:15.302Z,96606.58
2017-10-12T23:44:44.375Z,96613.72
2017-10-12T23:47:13.408Z,96609.93
2017-10-12T23:49:42.453Z,96606.77
2017-10-12T23:52:11.503Z,96608.34
2017-10-12T23:54:40.547Z,96600.96
2017-10-12T23:57:10.606Z,96605.79
2017-10-12T23:59:39.655Z,96604.97
